createdAt,value
2018-08-13T00:01:37.144Z,4.00
2018-08-13T00:04:05.968Z,4.13
2018-08-13T00:06:35.066Z,3.97
2018-08-13T00:09:05.062Z,3.90
2018-08-13T00:11:33.888Z,3.50
2018-08-13T00:14:02.694Z,4.00
2018-08-13T00:16:41.014Z,4.20
2018-08-13T00:19:09.919Z,4.07
2018-08-13T00:21:38.754Z,3.60
2018-08-13T00:24:07.538Z,4.10
2018-08-13T00:26:36.494Z,4.00
2018-08-13T00:29:05.423Z,4.00
2018-08-13T00:31:34.212Z,4.20
2018-08-13T00:34:03.020Z,3.87
2018-08-13T00:36:31.835Z,3.60
2018-08-13T00:39:00.654Z,3.87
2018-08-13T00:41:29.439Z,3.60
2018-08-13T00:43:58.268Z,3.50
2018-08-13T00:46:27.168Z,3.80
2018-08-13T00:48:55.991Z,3.80
2018-08-13T00:51:24.818Z,3.83
2018-08-13T00:53:53.583Z,3.70
2018-08-13T00:56:22.360Z,3.83
2018-08-13T00:58:51.220Z,3.73
2018-08-13T01:01:20.047Z,3.90
2018-08-13T01:03:48.927Z,3.60
2018-08-13T01:06:17.699Z,4.00
2018-08-13T01:08:46.555Z,4.07
2018-08-13T01:11:15.354Z,3.80
2018-08-13T01:13:44.159Z,4.00
2018-08-13T01:16:18.162Z,3.60
2018-08-13T01:18:46.970Z,3.53
2018-08-13T01:21:15.788Z,3.67
2018-08-13T01:23:44.588Z,3.77
2018-08-13T01:26:13.643Z,3.73
2018-08-13T01:28:42.467Z,3.57
2018-08-13T01:31:11.338Z,3.33
2018-08-13T01:33:40.194Z,3.60
2018-08-13T01:36:09.071Z,3.60
2018-08-13T01:38:37.887Z,3.80
2018-08-13T01:41:06.660Z,3.43
2018-08-13T01:43:35.455Z,3.53
2018-08-13T01:46:04.572Z,3.43
2018-08-13T01:48:33.382Z,3.13
2018-08-13T01:51:02.183Z,3.73
2018-08-13T01:53:31.010Z,3.53
2018-08-13T01:55:59.835Z,3.80
2018-08-13T01:58:28.679Z,3.50
2018-08-13T02:00:57.502Z,3.43
2018-08-13T02:03:26.363Z,3.40
2018-08-13T02:05:55.219Z,3.63
2018-08-13T02:08:24.106Z,3.60
2018-08-13T02:10:52.955Z,3.60
2018-08-13T02:13:21.822Z,3.40
2018-08-13T02:15:50.666Z,3.20
2018-08-13T02:18:19.485Z,3.50
2018-08-13T02:20:48.716Z,3.47
2018-08-13T02:23:17.544Z,3.63
2018-08-13T02:25:46.371Z,3.30
2018-08-13T02:28:15.235Z,3.90
2018-08-13T02:30:44.042Z,3.40
2018-08-13T02:33:12.940Z,3.30
2018-08-13T02:35:41.801Z,3.37
2018-08-13T02:38:10.724Z,3.60
2018-08-13T02:40:39.507Z,3.63
2018-08-13T02:43:08.372Z,3.40
2018-08-13T02:45:37.264Z,3.67
2018-08-13T02:48:06.540Z,3.13
2018-08-13T02:50:35.336Z,3.57
2018-08-13T02:53:04.176Z,3.50
2018-08-13T02:55:32.959Z,3.27
2018-08-13T02:58:01.983Z,3.40
2018-08-13T03:00:31.092Z,3.30
2018-08-13T03:02:59.938Z,3.30
2018-08-13T03:05:28.747Z,3.50
2018-08-13T03:07:57.537Z,3.33
2018-08-13T03:10:26.379Z,3.30
2018-08-13T03:12:55.186Z,3.80
2018-08-13T03:15:24.034Z,3.77
2018-08-13T03:17:52.970Z,3.50
2018-08-13T03:20:21.802Z,3.50
2018-08-13T03:22:50.570Z,3.47
2018-08-13T03:25:19.401Z,3.20
2018-08-13T03:27:48.323Z,3.43
2018-08-13T03:30:17.211Z,3.63
2018-08-13T03:32:46.003Z,3.43
2018-08-13T03:35:14.914Z,3.37
2018-08-13T03:37:44.004Z,3.03
2018-08-13T03:40:13.895Z,3.20
2018-08-13T03:42:42.747Z,3.57
2018-08-13T03:45:12.447Z,3.43
2018-08-13T03:47:41.378Z,3.30
2018-08-13T03:50:11.548Z,3.17
2018-08-13T03:52:40.533Z,3.63
2018-08-13T03:55:10.566Z,3.70
2018-08-13T03:57:39.959Z,3.20
2018-08-13T04:00:12.145Z,3.60
2018-08-13T04:02:41.035Z,3.17
2018-08-13T04:05:10.352Z,3.13
2018-08-13T04:07:40.011Z,3.70
2018-08-13T04:10:11.068Z,3.80
2018-08-13T04:12:41.591Z,3.63
2018-08-13T04:15:12.032Z,3.70
2018-08-13T04:17:40.867Z,3.50
2018-08-13T04:20:11.093Z,3.17
2018-08-13T04:22:39.978Z,3.37
2018-08-13T04:25:09.840Z,3.20
2018-08-13T04:27:39.752Z,3.20
2018-08-13T04:30:12.127Z,3.03
2018-08-13T04:32:41.124Z,3.60
2018-08-13T04:35:09.927Z,3.20
2018-08-13T04:37:39.029Z,3.40
2018-08-13T04:40:11.216Z,3.27
2018-08-13T04:42:40.455Z,3.53
2018-08-13T04:45:09.941Z,3.27
2018-08-13T04:47:38.979Z,3.10
2018-08-13T04:50:09.194Z,3.47
2018-08-13T04:52:38.277Z,3.30
2018-08-13T04:55:08.398Z,3.57
2018-08-13T04:57:42.542Z,3.50
2018-08-13T05:00:11.403Z,3.30
2018-08-13T05:02:40.251Z,3.03
2018-08-13T05:05:10.413Z,3.60
2018-08-13T05:07:39.726Z,2.90
2018-08-13T05:10:09.823Z,3.37
2018-08-13T05:12:39.135Z,3.40
2018-08-13T05:15:09.040Z,3.30
2018-08-13T05:17:37.970Z,3.30
2018-08-13T05:20:07.627Z,4.07
2018-08-13T05:22:36.474Z,3.20
2018-08-13T05:25:06.341Z,3.83
2018-08-13T05:27:35.475Z,3.37
2018-08-13T05:30:05.501Z,3.40
2018-08-13T05:32:34.395Z,3.10
2018-08-13T05:35:03.242Z,3.70
2018-08-13T05:37:32.063Z,3.60
2018-08-13T05:40:00.848Z,3.50
2018-08-13T05:42:29.642Z,3.80
2018-08-13T05:44:58.474Z,3.37
2018-08-13T05:47:28.214Z,3.73
2018-08-13T05:49:57.004Z,3.30
2018-08-13T05:52:25.783Z,3.67
2018-08-13T05:54:54.608Z,3.30
2018-08-13T05:57:23.450Z,3.80
2018-08-13T05:59:52.237Z,3.13
2018-08-13T06:02:21.047Z,3.10
2018-08-13T06:04:49.827Z,3.30
2018-08-13T06:07:18.911Z,3.23
2018-08-13T06:09:47.780Z,3.43
2018-08-13T06:12:16.571Z,3.27
2018-08-13T06:14:45.448Z,3.50
2018-08-13T06:17:23.494Z,3.33
2018-08-13T06:19:52.098Z,3.60
2018-08-13T06:22:20.705Z,3.10
2018-08-13T06:24:49.278Z,3.50
2018-08-13T06:27:17.958Z,3.53
2018-08-13T06:29:46.622Z,3.50
2018-08-13T06:32:15.306Z,3.37
2018-08-13T06:34:43.966Z,3.40
2018-08-13T06:37:12.777Z,3.60
2018-08-13T06:39:41.534Z,3.20
2018-08-13T06:42:10.167Z,3.30
2018-08-13T06:44:38.730Z,3.50
2018-08-13T06:47:07.469Z,3.47
2018-08-13T06:49:36.123Z,4.37
2018-08-13T06:52:04.726Z,4.30
2018-08-13T06:54:33.267Z,3.47
2018-08-13T06:57:02.575Z,3.70
2018-08-13T06:59:31.139Z,3.57
2018-08-13T07:01:59.685Z,3.50
2018-08-13T07:04:28.380Z,3.00
2018-08-13T07:06:56.990Z,3.30
2018-08-13T07:09:25.595Z,4.13
2018-08-13T07:11:54.308Z,3.83
2018-08-13T07:14:22.971Z,3.70
2018-08-13T07:16:51.531Z,3.63
2018-08-13T07:19:20.142Z,3.60
2018-08-13T07:21:48.912Z,3.60
2018-08-13T07:24:17.545Z,3.50
2018-08-13T07:26:46.546Z,3.27
2018-08-13T07:29:15.222Z,3.50
2018-08-13T07:31:43.903Z,3.80
2018-08-13T07:34:12.530Z,3.53
2018-08-13T07:36:41.230Z,3.53
2018-08-13T07:39:10.546Z,3.40
2018-08-13T07:41:39.664Z,3.50
2018-08-13T07:44:08.594Z,4.20
2018-08-13T07:46:59.994Z,4.03
2018-08-13T07:49:28.643Z,3.80
2018-08-13T07:51:57.454Z,3.80
2018-08-13T07:54:26.181Z,4.23
2018-08-13T07:56:55.012Z,3.80
2018-08-13T07:59:23.779Z,3.80
2018-08-13T08:01:52.606Z,3.60
2018-08-13T08:04:21.419Z,3.30
2018-08-13T08:06:50.154Z,3.50
2018-08-13T08:09:19.008Z,3.23
2018-08-13T08:11:47.566Z,3.50
2018-08-13T08:14:16.305Z,3.57
2018-08-13T08:16:44.999Z,3.20
2018-08-13T08:19:13.834Z,3.30
2018-08-13T08:21:42.513Z,4.03
2018-08-13T08:24:11.258Z,3.77
2018-08-13T08:26:44.878Z,3.90
2018-08-13T08:29:13.613Z,3.30
2018-08-13T08:31:42.293Z,3.60
2018-08-13T08:34:11.418Z,3.93
2018-08-13T08:36:39.978Z,3.37
2018-08-13T08:39:12.406Z,3.80
2018-08-13T08:41:41.206Z,4.03
2018-08-13T08:44:10.478Z,3.57
2018-08-13T08:46:39.515Z,3.57
2018-08-13T08:49:08.250Z,3.80
2018-08-13T08:51:37.791Z,3.93
2018-08-13T08:54:06.831Z,4.30
2018-08-13T08:56:36.042Z,3.63
2018-08-13T08:59:05.517Z,4.03
2018-08-13T09:01:34.230Z,3.70
2018-08-13T09:04:02.996Z,3.77
2018-08-13T09:06:31.637Z,4.10
2018-08-13T09:09:00.397Z,3.97
2018-08-13T09:11:29.119Z,3.70
2018-08-13T09:13:57.824Z,3.60
2018-08-13T09:16:26.515Z,3.87
2018-08-13T09:19:06.233Z,3.80
2018-08-13T09:21:36.899Z,3.80
2018-08-13T09:24:17.278Z,3.70
2018-08-13T09:26:57.067Z,4.10
2018-08-13T09:29:36.979Z,4.20
2018-08-13T09:32:28.810Z,4.20
2018-08-13T09:35:15.550Z,4.07
2018-08-13T09:37:44.303Z,3.67
2018-08-13T09:40:12.982Z,3.93
2018-08-13T09:42:41.773Z,3.90
2018-08-13T09:45:10.420Z,3.90
2018-08-13T09:47:39.719Z,4.07
2018-08-13T09:50:18.124Z,4.10
2018-08-13T09:52:47.495Z,4.10
2018-08-13T09:55:16.922Z,4.00
2018-08-13T09:57:46.566Z,4.33
2018-08-13T10:00:21.725Z,4.20
2018-08-13T10:02:50.528Z,3.93
2018-08-13T10:05:19.342Z,4.10
2018-08-13T10:07:48.279Z,4.30
2018-08-13T10:10:17.604Z,4.00
2018-08-13T10:12:46.794Z,3.83
2018-08-13T10:15:15.728Z,4.33
2018-08-13T10:17:44.576Z,3.83
2018-08-13T10:20:17.099Z,4.77
2018-08-13T10:22:45.966Z,4.63
2018-08-13T10:25:14.857Z,4.37
2018-08-13T10:27:43.662Z,4.07
2018-08-13T10:30:13.950Z,4.50
2018-08-13T10:32:42.778Z,4.13
2018-08-13T10:35:11.466Z,3.73
2018-08-13T10:37:40.821Z,4.33
2018-08-13T10:40:12.354Z,4.10
2018-08-13T10:42:41.110Z,4.30
2018-08-13T10:45:09.814Z,3.90
2018-08-13T10:47:38.565Z,4.60
2018-08-13T10:50:08.879Z,3.97
2018-08-13T10:52:37.787Z,4.67
2018-08-13T10:55:06.835Z,4.10
2018-08-13T10:57:35.562Z,4.40
2018-08-13T11:00:05.876Z,5.13
2018-08-13T11:02:34.713Z,4.70
2018-08-13T11:05:03.664Z,4.70
2018-08-13T11:07:32.442Z,3.90
2018-08-13T11:10:01.164Z,5.10
2018-08-13T11:12:29.975Z,6.00
2018-08-13T11:14:58.724Z,5.77
2018-08-13T11:17:27.470Z,7.33
2018-08-13T11:19:56.198Z,4.73
2018-08-13T11:22:25.044Z,4.37
2018-08-13T11:24:53.835Z,4.87
2018-08-13T11:27:22.930Z,4.93
2018-08-13T11:29:51.630Z,4.87
2018-08-13T11:32:20.419Z,4.97
2018-08-13T11:34:49.062Z,4.33
2018-08-13T11:37:17.866Z,4.50
2018-08-13T11:39:46.561Z,4.20
2018-08-13T11:42:15.263Z,5.53
2018-08-13T11:44:43.951Z,5.30
2018-08-13T11:47:13.500Z,5.50
2018-08-13T11:49:42.245Z,5.70
2018-08-13T11:52:10.859Z,4.23
2018-08-13T11:54:39.662Z,3.90
2018-08-13T11:57:08.355Z,3.83
2018-08-13T11:59:37.061Z,4.50
2018-08-13T12:02:05.994Z,3.93
2018-08-13T12:04:34.643Z,4.30
2018-08-13T12:07:03.430Z,4.37
2018-08-13T12:09:32.182Z,4.17
2018-08-13T12:12:00.898Z,4.67
2018-08-13T12:14:29.567Z,5.43
2018-08-13T12:16:58.269Z,4.57
2018-08-13T12:19:26.999Z,5.30
2018-08-13T12:21:55.717Z,5.33
2018-08-13T12:24:24.584Z,5.00
2018-08-13T12:26:53.389Z,4.93
2018-08-13T12:29:22.114Z,4.80
2018-08-13T12:31:50.863Z,5.27
2018-08-13T12:34:19.590Z,5.10
2018-08-13T12:36:48.347Z,4.90
2018-08-13T12:39:17.035Z,5.27
2018-08-13T12:41:45.735Z,6.33
2018-08-13T12:44:14.433Z,5.87
2018-08-13T12:46:43.091Z,5.53
2018-08-13T12:49:11.809Z,6.03
2018-08-13T12:51:40.507Z,6.37
2018-08-13T12:54:09.407Z,6.23
2018-08-13T12:56:38.131Z,6.63
2018-08-13T12:59:06.862Z,6.33
2018-08-13T13:01:35.495Z,7.23
2018-08-13T13:04:04.299Z,7.10
2018-08-13T13:06:32.919Z,7.13
2018-08-13T13:09:01.677Z,7.13
2018-08-13T13:11:30.286Z,6.03
2018-08-13T13:13:58.961Z,6.00
2018-08-13T13:16:27.758Z,6.93
2018-08-13T13:18:56.533Z,7.03
2018-08-13T13:21:25.250Z,7.93
2018-08-13T13:23:53.898Z,6.70
2018-08-13T13:26:22.582Z,6.27
2018-08-13T13:28:51.524Z,10.60
2018-08-13T13:31:20.239Z,9.20
2018-08-13T13:33:48.967Z,6.37
2018-08-13T13:36:17.651Z,6.77
2018-08-13T13:38:46.386Z,6.97
2018-08-13T13:41:15.075Z,6.10
2018-08-13T13:43:43.712Z,6.27
2018-08-13T13:46:12.709Z,6.30
2018-08-13T13:48:41.398Z,6.37
2018-08-13T13:51:10.127Z,5.80
2018-08-13T13:53:38.777Z,5.83
2018-08-13T13:56:07.527Z,6.00
2018-08-13T13:58:36.573Z,6.90
2018-08-13T14:01:05.338Z,6.03
2018-08-13T14:03:34.034Z,5.63
2018-08-13T14:06:02.793Z,6.00
2018-08-13T14:08:31.470Z,6.30
2018-08-13T14:11:00.194Z,6.13
2018-08-13T14:13:29.111Z,6.20
2018-08-13T14:15:57.958Z,6.87
2018-08-13T14:18:26.630Z,7.03
2018-08-13T14:20:55.287Z,6.43
2018-08-13T14:23:23.958Z,7.23
2018-08-13T14:25:52.731Z,7.00
2018-08-13T14:28:21.455Z,6.77
2018-08-13T14:30:50.238Z,7.23
2018-08-13T14:33:19.876Z,7.50
2018-08-13T14:35:48.590Z,7.63
2018-08-13T14:38:17.358Z,7.17
2018-08-13T14:40:46.121Z,7.47
2018-08-13T14:43:15.451Z,7.50
2018-08-13T14:45:44.218Z,7.80
2018-08-13T14:48:13.008Z,7.60
2018-08-13T14:50:41.995Z,7.87
2018-08-13T14:53:10.737Z,6.43
2018-08-13T14:55:39.376Z,7.50
2018-08-13T14:58:08.158Z,7.17
2018-08-13T15:00:38.115Z,7.23
2018-08-13T15:03:10.486Z,6.87
2018-08-13T15:05:39.597Z,7.23
2018-08-13T15:08:08.300Z,6.53
2018-08-13T15:10:36.997Z,7.07
2018-08-13T15:13:05.864Z,6.90
2018-08-13T15:15:34.538Z,8.13
2018-08-13T15:18:03.241Z,8.40
2018-08-13T15:20:32.648Z,7.77
2018-08-13T15:23:01.409Z,7.00
2018-08-13T15:25:30.291Z,6.90
2018-08-13T15:27:59.139Z,6.83
2018-08-13T15:30:27.966Z,6.47
2018-08-13T15:32:56.619Z,6.93
2018-08-13T15:35:25.299Z,7.10
2018-08-13T15:37:54.059Z,6.87
2018-08-13T15:40:22.759Z,6.70
2018-08-13T15:42:51.463Z,6.37
2018-08-13T15:45:21.481Z,6.47
2018-08-13T15:47:50.394Z,6.67
2018-08-13T15:50:20.226Z,6.30
2018-08-13T15:52:49.208Z,6.73
2018-08-13T15:55:17.939Z,6.80
2018-08-13T15:57:46.787Z,7.17
2018-08-13T16:00:20.539Z,7.23
2018-08-13T16:02:49.820Z,6.87
2018-08-13T16:05:19.034Z,7.17
2018-08-13T16:07:48.467Z,7.10
2018-08-13T16:10:17.816Z,8.00
2018-08-13T16:12:46.742Z,7.70
2018-08-13T16:15:15.626Z,6.70
2018-08-13T16:17:44.298Z,6.00
2018-08-13T16:20:15.987Z,5.53
2018-08-13T16:22:45.419Z,5.80
2018-08-13T16:25:14.631Z,5.33
2018-08-13T16:27:43.702Z,5.10
2018-08-13T16:30:16.594Z,4.70
2018-08-13T16:32:46.108Z,4.93
2018-08-13T16:35:14.965Z,4.60
2018-08-13T16:37:43.893Z,5.00
2018-08-13T16:40:12.901Z,5.43
2018-08-13T16:42:41.606Z,5.50
2018-08-13T16:45:11.414Z,5.40
2018-08-13T16:47:40.117Z,5.40
2018-08-13T16:50:15.026Z,5.00
2018-08-13T16:52:43.803Z,6.20
2018-08-13T16:55:13.410Z,4.10
2018-08-13T16:57:42.842Z,3.83
2018-08-13T17:00:14.769Z,3.20
2018-08-13T17:02:43.432Z,3.50
2018-08-13T17:05:13.108Z,4.23
2018-08-13T17:07:42.639Z,5.17
2018-08-13T17:10:16.264Z,4.77
2018-08-13T17:12:44.979Z,4.13
2018-08-13T17:15:13.727Z,5.20
2018-08-13T17:17:42.654Z,4.37
2018-08-13T17:20:13.555Z,5.97
2018-08-13T17:22:42.344Z,5.87
2018-08-13T17:25:12.741Z,5.50
2018-08-13T17:27:42.244Z,7.17
2018-08-13T17:30:14.562Z,5.00
2018-08-13T17:32:43.264Z,5.20
2018-08-13T17:35:12.007Z,5.37
2018-08-13T17:37:40.743Z,5.07
2018-08-13T17:40:13.166Z,5.00
2018-08-13T17:42:42.123Z,5.60
2018-08-13T17:45:10.779Z,5.27
2018-08-13T17:47:39.787Z,6.00
2018-08-13T17:50:10.735Z,6.07
2018-08-13T17:52:40.779Z,5.80
2018-08-13T17:55:10.532Z,5.77
2018-08-13T17:57:39.581Z,5.30
2018-08-13T18:00:17.951Z,5.70
2018-08-13T18:02:46.590Z,6.10
2018-08-13T18:05:17.411Z,5.23
2018-08-13T18:07:46.307Z,3.77
2018-08-13T18:10:18.867Z,4.10
2018-08-13T18:12:47.522Z,4.27
2018-08-13T18:15:16.913Z,4.67
2018-08-13T18:17:45.995Z,5.27
2018-08-13T18:20:14.734Z,3.90
2018-08-13T18:22:43.472Z,2.60
2018-08-13T18:25:13.109Z,2.13
2018-08-13T18:27:43.054Z,3.33
2018-08-13T18:30:14.666Z,2.30
2018-08-13T18:32:43.383Z,2.13
2018-08-13T18:35:12.454Z,2.63
2018-08-13T18:37:41.215Z,2.30
2018-08-13T18:40:15.098Z,1.80
2018-08-13T18:42:43.766Z,2.43
2018-08-13T18:45:12.533Z,2.77
2018-08-13T18:47:41.158Z,1.80
2018-08-13T18:50:12.887Z,1.87
2018-08-13T18:52:41.946Z,1.90
2018-08-13T18:55:11.731Z,2.10
2018-08-13T18:57:40.450Z,2.60
2018-08-13T19:00:10.967Z,3.33
2018-08-13T19:02:40.011Z,2.27
2018-08-13T19:05:09.894Z,2.10
2018-08-13T19:07:38.646Z,2.00
2018-08-13T19:10:09.339Z,2.60
2018-08-13T19:12:38.135Z,2.77
2018-08-13T19:15:09.096Z,2.70
2018-08-13T19:17:37.831Z,2.60
2018-08-13T19:20:08.126Z,3.00
2018-08-13T19:22:36.963Z,2.90
2018-08-13T19:25:07.536Z,2.73
2018-08-13T19:27:36.497Z,2.73
2018-08-13T19:30:05.736Z,2.73
2018-08-13T19:32:34.487Z,2.70
2018-08-13T19:35:03.219Z,2.40
2018-08-13T19:37:32.067Z,3.00
2018-08-13T19:40:00.803Z,3.10
2018-08-13T19:42:29.497Z,2.77
2018-08-13T19:44:58.218Z,2.10
2018-08-13T19:47:26.979Z,2.27
2018-08-13T19:49:55.734Z,2.10
2018-08-13T19:52:24.383Z,2.73
2018-08-13T19:54:53.083Z,2.47
2018-08-13T19:57:35.431Z,2.20
2018-08-13T20:00:05.426Z,1.80
2018-08-13T20:02:34.129Z,1.83
2018-08-13T20:05:02.894Z,1.60
2018-08-13T20:07:31.599Z,1.80
2018-08-13T20:10:00.345Z,2.23
2018-08-13T20:12:29.054Z,2.43
2018-08-13T20:14:57.738Z,3.40
2018-08-13T20:17:26.429Z,2.70
2018-08-13T20:19:55.128Z,2.77
2018-08-13T20:22:23.826Z,3.10
2018-08-13T20:24:52.576Z,3.80
2018-08-13T20:27:21.249Z,2.70
2018-08-13T20:29:49.932Z,2.80
2018-08-13T20:32:18.686Z,2.40
2018-08-13T20:34:47.414Z,1.60
2018-08-13T20:37:16.204Z,1.73
2018-08-13T20:39:44.878Z,2.37
2018-08-13T20:42:13.579Z,2.07
2018-08-13T20:44:42.266Z,1.70
2018-08-13T20:47:20.351Z,1.50
2018-08-13T20:49:49.023Z,1.50
2018-08-13T20:52:17.800Z,1.20
2018-08-13T20:54:46.487Z,1.27
2018-08-13T20:57:15.547Z,1.40
2018-08-13T20:59:44.220Z,1.13
2018-08-13T21:02:12.896Z,1.30
2018-08-13T21:04:41.731Z,1.20
2018-08-13T21:07:10.515Z,1.20
2018-08-13T21:09:39.152Z,1.20
2018-08-13T21:12:08.132Z,1.30
2018-08-13T21:14:36.841Z,2.50
2018-08-13T21:17:05.603Z,1.63
2018-08-13T21:19:34.294Z,1.77
2018-08-13T21:22:03.478Z,1.43
2018-08-13T21:24:33.831Z,1.30
2018-08-13T21:27:02.567Z,1.50
2018-08-13T21:29:31.251Z,1.63
2018-08-13T21:31:59.991Z,1.60
2018-08-13T21:34:28.690Z,1.50
2018-08-13T21:36:57.411Z,1.70
2018-08-13T21:39:26.183Z,1.40
2018-08-13T21:41:54.929Z,1.40
2018-08-13T21:44:23.666Z,1.80
2018-08-13T21:46:52.642Z,1.50
2018-08-13T21:49:21.383Z,1.50
2018-08-13T21:51:50.093Z,1.57
2018-08-13T21:54:18.788Z,1.57
2018-08-13T21:56:47.588Z,1.50
2018-08-13T21:59:16.326Z,1.70
2018-08-13T22:01:46.824Z,1.40
2018-08-13T22:04:17.022Z,1.50
2018-08-13T22:06:45.979Z,1.60
2018-08-13T22:09:14.619Z,1.50
2018-08-13T22:11:43.371Z,1.60
2018-08-13T22:14:12.035Z,2.07
2018-08-13T22:16:40.807Z,2.00
2018-08-13T22:19:10.389Z,1.87
2018-08-13T22:21:39.118Z,2.00
2018-08-13T22:24:18.923Z,2.10
2018-08-13T22:29:40.355Z,1.67
2018-08-13T22:32:09.050Z,1.80
2018-08-13T22:34:37.956Z,1.70
2018-08-13T22:37:06.640Z,1.50
2018-08-13T22:39:35.386Z,1.87
2018-08-13T22:42:04.356Z,1.77
2018-08-13T22:44:33.058Z,1.50
2018-08-13T22:47:01.852Z,1.80
2018-08-13T22:49:30.502Z,2.10
2018-08-13T22:51:59.207Z,2.07
2018-08-13T22:54:27.791Z,1.87
2018-08-13T22:56:56.480Z,1.67
2018-08-13T22:59:25.074Z,1.60
2018-08-13T23:01:53.675Z,1.53
2018-08-13T23:04:22.399Z,1.43
2018-08-13T23:06:51.431Z,1.70
2018-08-13T23:09:20.128Z,2.00
2018-08-13T23:11:48.835Z,1.73
2018-08-13T23:14:17.506Z,1.57
2018-08-13T23:16:46.430Z,1.50
2018-08-13T23:19:15.138Z,1.90
2018-08-13T23:21:43.869Z,1.67
2018-08-13T23:24:12.587Z,2.00
2018-08-13T23:26:41.265Z,2.13
2018-08-13T23:29:09.978Z,2.03
2018-08-13T23:31:38.620Z,1.80
2018-08-13T23:34:07.406Z,1.90
2018-08-13T23:36:36.077Z,1.87
2018-08-13T23:39:08.616Z,1.93
2018-08-13T23:41:37.292Z,1.97
2018-08-13T23:44:05.987Z,1.83
2018-08-13T23:46:34.719Z,1.70
2018-08-13T23:49:03.474Z,1.47
2018-08-13T23:51:32.193Z,1.47
2018-08-13T23:54:00.971Z,1.20
2018-08-13T23:56:29.675Z,1.60
2018-08-13T23:59:03.593Z,1.57
